sensor_id;sensor_type;location;lat;lon;timestamp;P1;durP1;ratioP1;P2;durP2;ratioP2
22955;SDS011;40888;48.148;11.526;2023-02-13T00:01:06;17.73;;;15.13;;
22955;SDS011;40888;48.148;11.526;2023-02-13T00:03:32;19.87;;;16.23;;
22955;SDS011;40888;48.148;11.526;2023-02-13T00:05:59;20.30;;;16.60;;
22955;SDS011;40888;48.148;11.526;2023-02-13T00:08:25;18.97;;;15.93;;
22955;SDS011;40888;48.148;11.526;2023-02-13T00:10:51;18.47;;;15.33;;
22955;SDS011;40888;48.148;11.526;2023-02-13T00:13:17;20.93;;;17.47;;
22955;SDS011;40888;48.148;11.526;2023-02-13T00:15:43;21.10;;;16.63;;
22955;SDS011;40888;48.148;11.526;2023-02-13T00:18:09;22.10;;;16.80;;
22955;SDS011;40888;48.148;11.526;2023-02-13T00:20:36;20.40;;;17.03;;
22955;SDS011;40888;48.148;11.526;2023-02-13T00:23:02;24.23;;;18.47;;
22955;SDS011;40888;48.148;11.526;2023-02-13T00:25:28;23.33;;;18.23;;
22955;SDS011;40888;48.148;11.526;2023-02-13T00:27:54;22.10;;;18.20;;
22955;SDS011;40888;48.148;11.526;2023-02-13T00:30:20;23.47;;;18.80;;
22955;SDS011;40888;48.148;11.526;2023-02-13T00:32:47;25.70;;;19.17;;
22955;SDS011;40888;48.148;11.526;2023-02-13T00:35:13;25.23;;;18.83;;
22955;SDS011;40888;48.148;11.526;2023-02-13T00:37:39;24.60;;;19.03;;
22955;SDS011;40888;48.148;11.526;2023-02-13T00:40:05;24.67;;;19.33;;
22955;SDS011;40888;48.148;11.526;2023-02-13T00:42:32;25.93;;;20.27;;
22955;SDS011;40888;48.148;11.526;2023-02-13T00:44:58;29.20;;;21.30;;
22955;SDS011;40888;48.148;11.526;2023-02-13T00:47:24;26.10;;;21.13;;
22955;SDS011;40888;48.148;11.526;2023-02-13T00:49:50;26.93;;;20.53;;
22955;SDS011;40888;48.148;11.526;2023-02-13T00:52:16;29.37;;;20.70;;
22955;SDS011;40888;48.148;11.526;2023-02-13T00:54:42;27.27;;;20.57;;
22955;SDS011;40888;48.148;11.526;2023-02-13T00:57:09;28.20;;;21.93;;
22955;SDS011;40888;48.148;11.526;2023-02-13T00:59:35;26.33;;;20.37;;
22955;SDS011;40888;48.148;11.526;2023-02-13T01:02:01;27.47;;;21.70;;
22955;SDS011;40888;48.148;11.526;2023-02-13T01:04:27;30.00;;;21.77;;
22955;SDS011;40888;48.148;11.526;2023-02-13T01:06:53;27.93;;;21.57;;
22955;SDS011;40888;48.148;11.526;2023-02-13T01:09:20;30.60;;;23.43;;
22955;SDS011;40888;48.148;11.526;2023-02-13T01:11:46;30.70;;;23.03;;
22955;SDS011;40888;48.148;11.526;2023-02-13T01:14:12;28.83;;;21.90;;
22955;SDS011;40888;48.148;11.526;2023-02-13T01:16:38;30.20;;;21.50;;
22955;SDS011;40888;48.148;11.526;2023-02-13T01:19:04;30.67;;;21.90;;
22955;SDS011;40888;48.148;11.526;2023-02-13T01:21:31;28.50;;;20.83;;
22955;SDS011;40888;48.148;11.526;2023-02-13T01:23:57;28.23;;;19.77;;
22955;SDS011;40888;48.148;11.526;2023-02-13T01:26:23;28.07;;;21.17;;
22955;SDS011;40888;48.148;11.526;2023-02-13T01:28:53;33.43;;;22.13;;
22955;SDS011;40888;48.148;11.526;2023-02-13T01:31:19;28.13;;;21.63;;
22955;SDS011;40888;48.148;11.526;2023-02-13T01:33:46;28.13;;;21.70;;
22955;SDS011;40888;48.148;11.526;2023-02-13T01:36:12;25.70;;;19.57;;
22955;SDS011;40888;48.148;11.526;2023-02-13T01:38:39;25.23;;;18.77;;
22955;SDS011;40888;48.148;11.526;2023-02-13T01:41:05;27.23;;;20.03;;
22955;SDS011;40888;48.148;11.526;2023-02-13T01:43:45;26.13;;;20.63;;
22955;SDS011;40888;48.148;11.526;2023-02-13T01:46:12;27.90;;;21.17;;
22955;SDS011;40888;48.148;11.526;2023-02-13T01:48:39;26.20;;;19.93;;
22955;SDS011;40888;48.148;11.526;2023-02-13T01:51:07;26.63;;;20.13;;
22955;SDS011;40888;48.148;11.526;2023-02-13T01:53:35;27.37;;;21.10;;
22955;SDS011;40888;48.148;11.526;2023-02-13T01:56:08;27.80;;;21.43;;
22955;SDS011;40888;48.148;11.526;2023-02-13T01:58:36;24.87;;;20.23;;
22955;SDS011;40888;48.148;11.526;2023-02-13T02:01:03;28.50;;;20.53;;
22955;SDS011;40888;48.148;11.526;2023-02-13T02:03:54;27.17;;;20.57;;
22955;SDS011;40888;48.148;11.526;2023-02-13T02:06:18;25.07;;;19.27;;
22955;SDS011;40888;48.148;11.526;2023-02-13T02:08:47;25.63;;;19.80;;
22955;SDS011;40888;48.148;11.526;2023-02-13T02:11:31;28.57;;;20.77;;
22955;SDS011;40888;48.148;11.526;2023-02-13T02:13:59;27.03;;;20.80;;
22955;SDS011;40888;48.148;11.526;2023-02-13T02:16:26;25.20;;;20.57;;
22955;SDS011;40888;48.148;11.526;2023-02-13T02:18:52;26.40;;;20.00;;
22955;SDS011;40888;48.148;11.526;2023-02-13T02:26:51;25.77;;;19.73;;
22955;SDS011;40888;48.148;11.526;2023-02-13T02:32:08;27.77;;;21.93;;
22955;SDS011;40888;48.148;11.526;2023-02-13T02:37:23;27.67;;;20.83;;
22955;SDS011;40888;48.148;11.526;2023-02-13T02:42:42;30.07;;;21.40;;
22955;SDS011;40888;48.148;11.526;2023-02-13T02:47:56;25.67;;;18.80;;
22955;SDS011;40888;48.148;11.526;2023-02-13T02:50:49;24.37;;;18.60;;
22955;SDS011;40888;48.148;11.526;2023-02-13T02:53:20;25.37;;;18.90;;
22955;SDS011;40888;48.148;11.526;2023-02-13T02:55:54;23.73;;;18.77;;
22955;SDS011;40888;48.148;11.526;2023-02-13T02:58:36;21.83;;;18.00;;
22955;SDS011;40888;48.148;11.526;2023-02-13T03:01:25;22.27;;;17.70;;
22955;SDS011;40888;48.148;11.526;2023-02-13T03:04:24;22.50;;;18.03;;
22955;SDS011;40888;48.148;11.526;2023-02-13T03:07:10;25.87;;;18.67;;
22955;SDS011;40888;48.148;11.526;2023-02-13T03:09:38;23.43;;;18.30;;
22955;SDS011;40888;48.148;11.526;2023-02-13T03:12:24;22.03;;;18.27;;
22955;SDS011;40888;48.148;11.526;2023-02-13T03:15:10;21.60;;;17.77;;
22955;SDS011;40888;48.148;11.526;2023-02-13T03:17:36;23.20;;;18.27;;
22955;SDS011;40888;48.148;11.526;2023-02-13T03:20:24;24.57;;;18.37;;
22955;SDS011;40888;48.148;11.526;2023-02-13T03:28:11;26.33;;;20.23;;
22955;SDS011;40888;48.148;11.526;2023-02-13T03:38:42;19.30;;;16.47;;
22955;SDS011;40888;48.148;11.526;2023-02-13T03:41:19;20.63;;;16.57;;
22955;SDS011;40888;48.148;11.526;2023-02-13T03:46:19;18.10;;;15.33;;
22955;SDS011;40888;48.148;11.526;2023-02-13T03:48:46;17.87;;;15.57;;
22955;SDS011;40888;48.148;11.526;2023-02-13T03:51:43;18.77;;;16.03;;
22955;SDS011;40888;48.148;11.526;2023-02-13T03:54:11;18.03;;;15.30;;
22955;SDS011;40888;48.148;11.526;2023-02-13T03:56:41;16.53;;;14.77;;
22955;SDS011;40888;48.148;11.526;2023-02-13T03:59:31;18.13;;;14.93;;
22955;SDS011;40888;48.148;11.526;2023-02-13T04:02:00;18.80;;;16.17;;
22955;SDS011;40888;48.148;11.526;2023-02-13T04:04:30;18.47;;;15.23;;
22955;SDS011;40888;48.148;11.526;2023-02-13T04:07:04;17.00;;;14.83;;
22955;SDS011;40888;48.148;11.526;2023-02-13T04:09:32;17.23;;;14.90;;
22955;SDS011;40888;48.148;11.526;2023-02-13T04:12:20;18.83;;;15.43;;
22955;SDS011;40888;48.148;11.526;2023-02-13T04:15:09;20.20;;;16.70;;
22955;SDS011;40888;48.148;11.526;2023-02-13T04:17:35;19.20;;;16.67;;
22955;SDS011;40888;48.148;11.526;2023-02-13T04:20:04;20.13;;;17.47;;
22955;SDS011;40888;48.148;11.526;2023-02-13T04:22:30;21.27;;;17.93;;
22955;SDS011;40888;48.148;11.526;2023-02-13T04:24:56;20.37;;;17.33;;
22955;SDS011;40888;48.148;11.526;2023-02-13T04:27:24;19.30;;;17.23;;
22955;SDS011;40888;48.148;11.526;2023-02-13T04:29:51;19.37;;;16.27;;
22955;SDS011;40888;48.148;11.526;2023-02-13T04:32:17;20.33;;;16.90;;
22955;SDS011;40888;48.148;11.526;2023-02-13T04:34:44;18.80;;;16.53;;
22955;SDS011;40888;48.148;11.526;2023-02-13T04:37:10;20.03;;;16.10;;
22955;SDS011;40888;48.148;11.526;2023-02-13T04:39:36;16.47;;;14.77;;
22955;SDS011;40888;48.148;11.526;2023-02-13T04:42:03;15.67;;;14.03;;
22955;SDS011;40888;48.148;11.526;2023-02-13T04:44:29;18.10;;;16.20;;
22955;SDS011;40888;48.148;11.526;2023-02-13T04:46:55;18.30;;;16.03;;
22955;SDS011;40888;48.148;11.526;2023-02-13T04:49:21;17.37;;;15.57;;
22955;SDS011;40888;48.148;11.526;2023-02-13T04:51:48;18.10;;;16.13;;
22955;SDS011;40888;48.148;11.526;2023-02-13T04:54:14;17.90;;;15.73;;
22955;SDS011;40888;48.148;11.526;2023-02-13T04:56:40;20.00;;;17.43;;
22955;SDS011;40888;48.148;11.526;2023-02-13T04:59:06;18.67;;;16.17;;
22955;SDS011;40888;48.148;11.526;2023-02-13T05:01:32;18.37;;;16.47;;
22955;SDS011;40888;48.148;11.526;2023-02-13T05:03:58;20.80;;;17.77;;
22955;SDS011;40888;48.148;11.526;2023-02-13T05:06:24;19.60;;;17.50;;
22955;SDS011;40888;48.148;11.526;2023-02-13T05:08:51;19.03;;;16.37;;
22955;SDS011;40888;48.148;11.526;2023-02-13T05:11:17;19.70;;;17.57;;
22955;SDS011;40888;48.148;11.526;2023-02-13T05:13:43;21.60;;;19.30;;
22955;SDS011;40888;48.148;11.526;2023-02-13T05:16:09;20.27;;;18.07;;
22955;SDS011;40888;48.148;11.526;2023-02-13T05:18:35;19.63;;;17.53;;
22955;SDS011;40888;48.148;11.526;2023-02-13T05:21:01;20.17;;;17.70;;
22955;SDS011;40888;48.148;11.526;2023-02-13T05:23:46;20.97;;;17.77;;
22955;SDS011;40888;48.148;11.526;2023-02-13T05:26:12;21.60;;;18.63;;
22955;SDS011;40888;48.148;11.526;2023-02-13T05:28:38;23.17;;;19.13;;
22955;SDS011;40888;48.148;11.526;2023-02-13T05:31:23;21.77;;;19.37;;
22955;SDS011;40888;48.148;11.526;2023-02-13T05:33:50;24.63;;;20.07;;
22955;SDS011;40888;48.148;11.526;2023-02-13T05:36:16;23.60;;;20.87;;
22955;SDS011;40888;48.148;11.526;2023-02-13T05:38:42;27.33;;;20.57;;
22955;SDS011;40888;48.148;11.526;2023-02-13T05:41:08;23.83;;;21.10;;
22955;SDS011;40888;48.148;11.526;2023-02-13T05:43:37;25.67;;;22.87;;
22955;SDS011;40888;48.148;11.526;2023-02-13T05:46:04;25.27;;;22.10;;
22955;SDS011;40888;48.148;11.526;2023-02-13T05:48:31;24.97;;;21.50;;
22955;SDS011;40888;48.148;11.526;2023-02-13T05:50:57;25.13;;;20.40;;
22955;SDS011;40888;48.148;11.526;2023-02-13T05:53:24;21.70;;;19.33;;
22955;SDS011;40888;48.148;11.526;2023-02-13T05:55:50;21.03;;;18.83;;
22955;SDS011;40888;48.148;11.526;2023-02-13T05:58:16;23.23;;;20.73;;
22955;SDS011;40888;48.148;11.526;2023-02-13T06:00:43;23.13;;;20.10;;
22955;SDS011;40888;48.148;11.526;2023-02-13T06:03:09;24.03;;;20.90;;
22955;SDS011;40888;48.148;11.526;2023-02-13T06:05:35;22.30;;;18.93;;
22955;SDS011;40888;48.148;11.526;2023-02-13T06:08:01;22.03;;;19.63;;
22955;SDS011;40888;48.148;11.526;2023-02-13T06:10:31;24.33;;;20.93;;
22955;SDS011;40888;48.148;11.526;2023-02-13T06:12:57;23.23;;;20.03;;
22955;SDS011;40888;48.148;11.526;2023-02-13T06:15:23;25.40;;;21.50;;
22955;SDS011;40888;48.148;11.526;2023-02-13T06:17:49;27.67;;;22.17;;
22955;SDS011;40888;48.148;11.526;2023-02-13T06:20:15;26.40;;;23.50;;
22955;SDS011;40888;48.148;11.526;2023-02-13T06:22:41;26.90;;;22.83;;
22955;SDS011;40888;48.148;11.526;2023-02-13T06:25:08;25.27;;;22.20;;
22955;SDS011;40888;48.148;11.526;2023-02-13T06:27:34;28.03;;;24.53;;
22955;SDS011;40888;48.148;11.526;2023-02-13T06:30:00;26.87;;;23.10;;
22955;SDS011;40888;48.148;11.526;2023-02-13T06:32:26;27.37;;;24.07;;
22955;SDS011;40888;48.148;11.526;2023-02-13T06:34:52;25.50;;;21.83;;
22955;SDS011;40888;48.148;11.526;2023-02-13T06:37:18;26.13;;;23.33;;
22955;SDS011;40888;48.148;11.526;2023-02-13T06:39:44;29.87;;;24.80;;
22955;SDS011;40888;48.148;11.526;2023-02-13T06:42:11;31.30;;;25.40;;
22955;SDS011;40888;48.148;11.526;2023-02-13T06:44:37;28.43;;;24.70;;
22955;SDS011;40888;48.148;11.526;2023-02-13T06:47:03;32.27;;;25.07;;
22955;SDS011;40888;48.148;11.526;2023-02-13T06:49:30;30.57;;;25.10;;
22955;SDS011;40888;48.148;11.526;2023-02-13T06:51:56;31.67;;;26.37;;
22955;SDS011;40888;48.148;11.526;2023-02-13T06:54:22;32.60;;;26.53;;
22955;SDS011;40888;48.148;11.526;2023-02-13T06:56:48;32.80;;;25.73;;
22955;SDS011;40888;48.148;11.526;2023-02-13T06:59:15;30.73;;;26.27;;
22955;SDS011;40888;48.148;11.526;2023-02-13T07:01:41;30.43;;;24.47;;
22955;SDS011;40888;48.148;11.526;2023-02-13T07:04:07;30.50;;;24.77;;
22955;SDS011;40888;48.148;11.526;2023-02-13T07:06:33;30.73;;;24.47;;
22955;SDS011;40888;48.148;11.526;2023-02-13T07:09:00;31.30;;;24.93;;
22955;SDS011;40888;48.148;11.526;2023-02-13T07:11:26;27.97;;;23.43;;
22955;SDS011;40888;48.148;11.526;2023-02-13T07:13:53;26.57;;;23.77;;
22955;SDS011;40888;48.148;11.526;2023-02-13T07:16:19;29.50;;;24.30;;
22955;SDS011;40888;48.148;11.526;2023-02-13T07:18:45;29.70;;;23.47;;
22955;SDS011;40888;48.148;11.526;2023-02-13T07:21:12;27.77;;;23.00;;
22955;SDS011;40888;48.148;11.526;2023-02-13T07:23:39;30.10;;;25.17;;
22955;SDS011;40888;48.148;11.526;2023-02-13T07:26:05;28.23;;;23.67;;
22955;SDS011;40888;48.148;11.526;2023-02-13T07:28:32;28.50;;;23.37;;
22955;SDS011;40888;48.148;11.526;2023-02-13T07:31:02;27.43;;;23.03;;
22955;SDS011;40888;48.148;11.526;2023-02-13T07:33:30;36.67;;;24.60;;
22955;SDS011;40888;48.148;11.526;2023-02-13T07:35:56;27.83;;;23.03;;
22955;SDS011;40888;48.148;11.526;2023-02-13T07:38:22;27.33;;;22.60;;
22955;SDS011;40888;48.148;11.526;2023-02-13T07:40:48;26.70;;;22.53;;
22955;SDS011;40888;48.148;11.526;2023-02-13T07:43:15;29.30;;;23.53;;
22955;SDS011;40888;48.148;11.526;2023-02-13T07:45:41;29.60;;;22.93;;
22955;SDS011;40888;48.148;11.526;2023-02-13T07:48:07;28.57;;;23.73;;
22955;SDS011;40888;48.148;11.526;2023-02-13T07:50:33;28.50;;;23.60;;
22955;SDS011;40888;48.148;11.526;2023-02-13T07:53:00;27.67;;;23.90;;
22955;SDS011;40888;48.148;11.526;2023-02-13T07:55:27;31.40;;;25.20;;
22955;SDS011;40888;48.148;11.526;2023-02-13T07:57:53;27.73;;;23.10;;
22955;SDS011;40888;48.148;11.526;2023-02-13T08:00:20;29.87;;;24.50;;
22955;SDS011;40888;48.148;11.526;2023-02-13T08:02:46;30.10;;;23.27;;
22955;SDS011;40888;48.148;11.526;2023-02-13T08:05:13;30.97;;;25.13;;
22955;SDS011;40888;48.148;11.526;2023-02-13T08:07:39;26.33;;;22.13;;
22955;SDS011;40888;48.148;11.526;2023-02-13T08:10:06;25.97;;;21.30;;
22955;SDS011;40888;48.148;11.526;2023-02-13T08:12:52;27.53;;;23.97;;
22955;SDS011;40888;48.148;11.526;2023-02-13T08:15:18;25.83;;;22.07;;
22955;SDS011;40888;48.148;11.526;2023-02-13T08:17:44;27.40;;;23.73;;
22955;SDS011;40888;48.148;11.526;2023-02-13T08:20:11;26.03;;;21.67;;
22955;SDS011;40888;48.148;11.526;2023-02-13T08:22:37;28.87;;;22.90;;
22955;SDS011;40888;48.148;11.526;2023-02-13T08:25:04;25.43;;;22.30;;
22955;SDS011;40888;48.148;11.526;2023-02-13T08:27:31;30.23;;;24.83;;
22955;SDS011;40888;48.148;11.526;2023-02-13T08:29:57;30.00;;;23.87;;
22955;SDS011;40888;48.148;11.526;2023-02-13T08:32:24;27.20;;;22.87;;
22955;SDS011;40888;48.148;11.526;2023-02-13T08:34:50;28.80;;;24.03;;
22955;SDS011;40888;48.148;11.526;2023-02-13T08:37:17;30.50;;;25.87;;
22955;SDS011;40888;48.148;11.526;2023-02-13T08:39:43;30.53;;;25.30;;
22955;SDS011;40888;48.148;11.526;2023-02-13T08:42:09;27.60;;;23.93;;
22955;SDS011;40888;48.148;11.526;2023-02-13T08:44:36;30.50;;;24.40;;
22955;SDS011;40888;48.148;11.526;2023-02-13T08:47:05;31.10;;;25.87;;
22955;SDS011;40888;48.148;11.526;2023-02-13T08:49:31;31.87;;;25.10;;
22955;SDS011;40888;48.148;11.526;2023-02-13T08:52:01;30.37;;;24.47;;
22955;SDS011;40888;48.148;11.526;2023-02-13T08:54:28;29.60;;;25.07;;
22955;SDS011;40888;48.148;11.526;2023-02-13T08:56:54;29.83;;;24.80;;
22955;SDS011;40888;48.148;11.526;2023-02-13T08:59:20;29.87;;;23.97;;
22955;SDS011;40888;48.148;11.526;2023-02-13T09:01:47;30.10;;;25.00;;
22955;SDS011;40888;48.148;11.526;2023-02-13T09:04:13;30.67;;;23.97;;
22955;SDS011;40888;48.148;11.526;2023-02-13T09:06:42;30.53;;;25.03;;
22955;SDS011;40888;48.148;11.526;2023-02-13T09:09:08;31.10;;;25.67;;
22955;SDS011;40888;48.148;11.526;2023-02-13T09:11:34;27.57;;;24.47;;
22955;SDS011;40888;48.148;11.526;2023-02-13T09:14:00;30.70;;;24.90;;
22955;SDS011;40888;48.148;11.526;2023-02-13T09:16:26;27.30;;;24.10;;
22955;SDS011;40888;48.148;11.526;2023-02-13T09:18:53;27.57;;;23.10;;
22955;SDS011;40888;48.148;11.526;2023-02-13T09:21:19;26.07;;;23.07;;
22955;SDS011;40888;48.148;11.526;2023-02-13T09:23:47;29.67;;;23.30;;
22955;SDS011;40888;48.148;11.526;2023-02-13T09:26:15;28.67;;;24.90;;
22955;SDS011;40888;48.148;11.526;2023-02-13T09:28:41;32.47;;;24.73;;
22955;SDS011;40888;48.148;11.526;2023-02-13T09:31:15;30.83;;;24.33;;
22955;SDS011;40888;48.148;11.526;2023-02-13T09:33:42;31.43;;;23.63;;
22955;SDS011;40888;48.148;11.526;2023-02-13T09:36:12;26.17;;;22.00;;
22955;SDS011;40888;48.148;11.526;2023-02-13T09:38:39;29.43;;;23.13;;
22955;SDS011;40888;48.148;11.526;2023-02-13T09:41:18;29.67;;;25.20;;
22955;SDS011;40888;48.148;11.526;2023-02-13T09:46:18;27.50;;;23.53;;
22955;SDS011;40888;48.148;11.526;2023-02-13T09:48:46;28.90;;;23.37;;
22955;SDS011;40888;48.148;11.526;2023-02-13T09:51:14;26.73;;;22.37;;
22955;SDS011;40888;48.148;11.526;2023-02-13T09:53:41;31.07;;;25.97;;
22955;SDS011;40888;48.148;11.526;2023-02-13T09:56:15;29.10;;;24.63;;
22955;SDS011;40888;48.148;11.526;2023-02-13T09:58:47;26.00;;;22.43;;
22955;SDS011;40888;48.148;11.526;2023-02-13T10:06:44;28.30;;;21.77;;
22955;SDS011;40888;48.148;11.526;2023-02-13T10:09:21;26.73;;;22.23;;
22955;SDS011;40888;48.148;11.526;2023-02-13T10:14:23;26.77;;;21.67;;
22955;SDS011;40888;48.148;11.526;2023-02-13T10:16:57;25.50;;;22.13;;
22955;SDS011;40888;48.148;11.526;2023-02-13T10:19:36;24.33;;;20.30;;
22955;SDS011;40888;48.148;11.526;2023-02-13T10:24:36;25.77;;;21.63;;
22955;SDS011;40888;48.148;11.526;2023-02-13T10:27:05;26.40;;;21.50;;
22955;SDS011;40888;48.148;11.526;2023-02-13T10:29:43;24.37;;;21.07;;
22955;SDS011;40888;48.148;11.526;2023-02-13T10:33:12;26.83;;;21.37;;
22955;SDS011;40888;48.148;11.526;2023-02-13T10:35:35;29.70;;;22.50;;
22955;SDS011;40888;48.148;11.526;2023-02-13T10:38:03;27.50;;;22.17;;
22955;SDS011;40888;48.148;11.526;2023-02-13T10:40:38;23.63;;;19.83;;
22955;SDS011;40888;48.148;11.526;2023-02-13T10:43:06;26.77;;;21.87;;
22955;SDS011;40888;48.148;11.526;2023-02-13T10:45:41;24.53;;;19.40;;
22955;SDS011;40888;48.148;11.526;2023-02-13T10:48:15;25.53;;;21.27;;
22955;SDS011;40888;48.148;11.526;2023-02-13T10:50:49;25.83;;;21.10;;
22955;SDS011;40888;48.148;11.526;2023-02-13T11:01:13;28.10;;;22.73;;
22955;SDS011;40888;48.148;11.526;2023-02-13T11:03:41;30.37;;;23.63;;
22955;SDS011;40888;48.148;11.526;2023-02-13T11:06:13;29.37;;;24.10;;
22955;SDS011;40888;48.148;11.526;2023-02-13T11:08:42;32.60;;;24.80;;
22955;SDS011;40888;48.148;11.526;2023-02-13T11:14:09;31.93;;;26.13;;
22955;SDS011;40888;48.148;11.526;2023-02-13T11:16:39;30.23;;;26.40;;
22955;SDS011;40888;48.148;11.526;2023-02-13T11:19:12;34.20;;;27.50;;
22955;SDS011;40888;48.148;11.526;2023-02-13T11:21:42;34.73;;;28.03;;
22955;SDS011;40888;48.148;11.526;2023-02-13T11:24:18;33.90;;;28.60;;
22955;SDS011;40888;48.148;11.526;2023-02-13T11:26:48;31.67;;;27.63;;
22955;SDS011;40888;48.148;11.526;2023-02-13T11:29:17;31.10;;;26.40;;
22955;SDS011;40888;48.148;11.526;2023-02-13T11:31:45;29.60;;;25.07;;
22955;SDS011;40888;48.148;11.526;2023-02-13T11:36:50;30.93;;;24.20;;
22955;SDS011;40888;48.148;11.526;2023-02-13T11:39:17;35.37;;;24.10;;
22955;SDS011;40888;48.148;11.526;2023-02-13T11:41:44;33.17;;;26.07;;
22955;SDS011;40888;48.148;11.526;2023-02-13T11:44:24;31.70;;;26.70;;
22955;SDS011;40888;48.148;11.526;2023-02-13T11:46:51;31.83;;;23.77;;
22955;SDS011;40888;48.148;11.526;2023-02-13T11:51:45;29.53;;;23.53;;
22955;SDS011;40888;48.148;11.526;2023-02-13T11:56:51;32.30;;;26.33;;
22955;SDS011;40888;48.148;11.526;2023-02-13T11:59:21;32.03;;;25.50;;
22955;SDS011;40888;48.148;11.526;2023-02-13T12:01:48;32.20;;;23.40;;
22955;SDS011;40888;48.148;11.526;2023-02-13T12:04:26;30.07;;;22.77;;
22955;SDS011;40888;48.148;11.526;2023-02-13T12:06:59;28.73;;;21.60;;
22955;SDS011;40888;48.148;11.526;2023-02-13T12:09:26;26.70;;;20.90;;
22955;SDS011;40888;48.148;11.526;2023-02-13T12:11:54;25.83;;;19.87;;
22955;SDS011;40888;48.148;11.526;2023-02-13T12:14:22;26.83;;;20.37;;
22955;SDS011;40888;48.148;11.526;2023-02-13T12:16:50;27.30;;;21.23;;
22955;SDS011;40888;48.148;11.526;2023-02-13T12:19:21;29.63;;;24.63;;
22955;SDS011;40888;48.148;11.526;2023-02-13T12:22:08;33.30;;;23.90;;
22955;SDS011;40888;48.148;11.526;2023-02-13T12:24:48;30.30;;;24.03;;
22955;SDS011;40888;48.148;11.526;2023-02-13T12:27:21;26.87;;;22.03;;
22955;SDS011;40888;48.148;11.526;2023-02-13T12:35:07;26.73;;;21.77;;
22955;SDS011;40888;48.148;11.526;2023-02-13T12:37:48;31.17;;;22.80;;
22955;SDS011;40888;48.148;11.526;2023-02-13T12:53:31;28.07;;;21.83;;
22955;SDS011;40888;48.148;11.526;2023-02-13T12:58:54;29.53;;;20.13;;
22955;SDS011;40888;48.148;11.526;2023-02-13T13:06:46;25.37;;;19.27;;
22955;SDS011;40888;48.148;11.526;2023-02-13T13:09:32;22.43;;;19.50;;
22955;SDS011;40888;48.148;11.526;2023-02-13T13:12:03;26.93;;;20.47;;
22955;SDS011;40888;48.148;11.526;2023-02-13T13:19:41;33.20;;;17.17;;
22955;SDS011;40888;48.148;11.526;2023-02-13T13:22:11;26.27;;;14.97;;
22955;SDS011;40888;48.148;11.526;2023-02-13T13:24:41;25.03;;;19.30;;
22955;SDS011;40888;48.148;11.526;2023-02-13T13:27:19;26.07;;;21.00;;
22955;SDS011;40888;48.148;11.526;2023-02-13T13:29:50;27.80;;;20.30;;
22955;SDS011;40888;48.148;11.526;2023-02-13T13:32:19;28.17;;;19.57;;
22955;SDS011;40888;48.148;11.526;2023-02-13T13:34:46;25.03;;;16.87;;
22955;SDS011;40888;48.148;11.526;2023-02-13T13:39:42;24.07;;;19.67;;
22955;SDS011;40888;48.148;11.526;2023-02-13T13:43:11;25.53;;;18.90;;
22955;SDS011;40888;48.148;11.526;2023-02-13T13:50:11;23.50;;;16.83;;
22955;SDS011;40888;48.148;11.526;2023-02-13T13:52:42;23.67;;;18.73;;
22955;SDS011;40888;48.148;11.526;2023-02-13T13:58:23;22.27;;;16.87;;
22955;SDS011;40888;48.148;11.526;2023-02-13T14:03:35;23.93;;;17.70;;
22955;SDS011;40888;48.148;11.526;2023-02-13T14:06:05;21.43;;;17.90;;
22955;SDS011;40888;48.148;11.526;2023-02-13T14:16:50;22.53;;;16.37;;
22955;SDS011;40888;48.148;11.526;2023-02-13T14:19:32;19.33;;;16.13;;
22955;SDS011;40888;48.148;11.526;2023-02-13T14:24:51;19.93;;;17.73;;
22955;SDS011;40888;48.148;11.526;2023-02-13T14:27:19;21.27;;;17.43;;
22955;SDS011;40888;48.148;11.526;2023-02-13T14:29:47;18.50;;;16.50;;
22955;SDS011;40888;48.148;11.526;2023-02-13T14:32:26;20.07;;;17.07;;
22955;SDS011;40888;48.148;11.526;2023-02-13T14:34:58;19.50;;;16.43;;
22955;SDS011;40888;48.148;11.526;2023-02-13T14:37:27;19.43;;;16.47;;
22955;SDS011;40888;48.148;11.526;2023-02-13T14:42:39;21.47;;;16.07;;
22955;SDS011;40888;48.148;11.526;2023-02-13T14:45:11;17.60;;;15.63;;
22955;SDS011;40888;48.148;11.526;2023-02-13T14:47:40;18.07;;;15.63;;
22955;SDS011;40888;48.148;11.526;2023-02-13T14:50:13;22.07;;;16.87;;
22955;SDS011;40888;48.148;11.526;2023-02-13T14:52:41;18.70;;;15.33;;
22955;SDS011;40888;48.148;11.526;2023-02-13T14:57:38;18.10;;;14.77;;
22955;SDS011;40888;48.148;11.526;2023-02-13T15:00:08;15.90;;;14.20;;
22955;SDS011;40888;48.148;11.526;2023-02-13T15:02:41;19.70;;;16.57;;
22955;SDS011;40888;48.148;11.526;2023-02-13T15:05:15;18.10;;;16.20;;
22955;SDS011;40888;48.148;11.526;2023-02-13T15:07:48;18.53;;;16.07;;
22955;SDS011;40888;48.148;11.526;2023-02-13T15:12:57;19.60;;;15.50;;
22955;SDS011;40888;48.148;11.526;2023-02-13T15:15:33;20.90;;;15.27;;
22955;SDS011;40888;48.148;11.526;2023-02-13T15:18:01;17.27;;;15.33;;
22955;SDS011;40888;48.148;11.526;2023-02-13T15:20:29;16.97;;;15.07;;
22955;SDS011;40888;48.148;11.526;2023-02-13T15:22:57;18.40;;;15.57;;
22955;SDS011;40888;48.148;11.526;2023-02-13T15:25:37;20.07;;;16.13;;
22955;SDS011;40888;48.148;11.526;2023-02-13T15:28:04;18.73;;;14.83;;
22955;SDS011;40888;48.148;11.526;2023-02-13T15:30:32;21.33;;;16.50;;
22955;SDS011;40888;48.148;11.526;2023-02-13T15:33:01;18.83;;;14.80;;
22955;SDS011;40888;48.148;11.526;2023-02-13T15:37:55;17.67;;;14.97;;
22955;SDS011;40888;48.148;11.526;2023-02-13T15:42:48;20.17;;;16.87;;
22955;SDS011;40888;48.148;11.526;2023-02-13T15:45:17;17.07;;;15.27;;
22955;SDS011;40888;48.148;11.526;2023-02-13T15:47:45;16.67;;;14.60;;
22955;SDS011;40888;48.148;11.526;2023-02-13T15:50:16;18.33;;;14.97;;
22955;SDS011;40888;48.148;11.526;2023-02-13T15:52:42;17.50;;;15.67;;
22955;SDS011;40888;48.148;11.526;2023-02-13T15:55:19;20.43;;;15.43;;
22955;SDS011;40888;48.148;11.526;2023-02-13T15:57:46;19.23;;;16.17;;
22955;SDS011;40888;48.148;11.526;2023-02-13T16:00:15;16.80;;;14.93;;
22955;SDS011;40888;48.148;11.526;2023-02-13T16:02:44;21.70;;;17.63;;
22955;SDS011;40888;48.148;11.526;2023-02-13T16:05:12;18.43;;;16.43;;
22955;SDS011;40888;48.148;11.526;2023-02-13T16:10:37;18.57;;;16.60;;
22955;SDS011;40888;48.148;11.526;2023-02-13T16:13:05;20.23;;;16.53;;
22955;SDS011;40888;48.148;11.526;2023-02-13T16:15:33;19.47;;;15.53;;
22955;SDS011;40888;48.148;11.526;2023-02-13T16:18:00;18.20;;;16.27;;
22955;SDS011;40888;48.148;11.526;2023-02-13T16:20:28;19.50;;;16.00;;
22955;SDS011;40888;48.148;11.526;2023-02-13T16:25:23;19.90;;;17.70;;
22955;SDS011;40888;48.148;11.526;2023-02-13T16:28:02;19.33;;;16.30;;
22955;SDS011;40888;48.148;11.526;2023-02-13T16:30:37;18.57;;;16.40;;
22955;SDS011;40888;48.148;11.526;2023-02-13T16:35:46;20.77;;;18.43;;
22955;SDS011;40888;48.148;11.526;2023-02-13T16:41:27;21.37;;;17.77;;
22955;SDS011;40888;48.148;11.526;2023-02-13T16:43:56;20.17;;;17.90;;
22955;SDS011;40888;48.148;11.526;2023-02-13T16:46:27;23.80;;;18.57;;